Time;durP1;ratioP1;P1;durP2;ratioP2;P2;SDS_P1;SDS_P2;PMS_P1;PMS_P2;Temp;Humidity;BMP_temperature;BMP_pressure;BME280_temperature;BME280_humidity;BME280_pressure;Samples;Min_cycle;Max_cycle;Signal;HPM_P1;HPM_P2
2023/05/03 00:01:00;;;;;;;7.07;4.40;;;;;6.10;102182.00;;;;9862782;29;21502;-78
2023/05/03 00:06:12;;;;;;;9.83;4.50;;;;;6.00;102172.00;;;;9872543;29;20316;-78
2023/05/03 00:11:13;;;;;;;9.37;4.80;;;;;5.90;102173.00;;;;9863979;29;21143;-77
2023/05/03 00:16:14;;;;;;;9.47;4.53;;;;;5.80;102167.00;;;;9873258;29;20367;-78
2023/05/03 00:21:16;;;;;;;11.20;4.60;;;;;5.70;102177.00;;;;9888536;29;20238;-77
2023/05/03 00:26:17;;;;;;;8.77;4.13;;;;;5.60;102164.00;;;;9872362;29;20225;-78
2023/05/03 00:31:19;;;;;;;9.37;5.10;;;;;5.50;102166.00;;;;9873771;29;21276;-77
2023/05/03 00:36:20;;;;;;;11.30;4.97;;;;;5.50;102173.00;;;;9870227;29;20468;-78
2023/05/03 00:41:23;;;;;;;7.30;4.63;;;;;5.40;102172.00;;;;9856786;29;20376;-77
2023/05/03 00:46:24;;;;;;;10.10;4.70;;;;;5.30;102171.00;;;;9854037;29;20500;-78
2023/05/03 00:51:27;;;;;;;9.10;4.70;;;;;5.20;102168.00;;;;9871588;29;20250;-79
2023/05/03 00:56:29;;;;;;;8.13;4.60;;;;;5.10;102168.00;;;;9856410;29;20230;-78
2023/05/03 01:01:38;;;;;;;11.13;4.43;;;;;5.10;102156.00;;;;9870478;29;21086;-80
2023/05/03 01:06:51;;;;;;;6.00;4.50;;;;;5.00;102146.00;;;;9856881;29;20242;-78
2023/05/03 01:12:05;;;;;;;8.20;4.43;;;;;4.90;102151.00;;;;9869614;29;20313;-78
2023/05/03 01:17:14;;;;;;;7.50;4.70;;;;;4.80;102155.00;;;;9870503;29;20326;-78
2023/05/03 01:22:37;;;;;;;9.27;4.67;;;;;4.70;102165.00;;;;9887091;29;20218;-77
2023/05/03 01:27:40;;;;;;;8.00;4.40;;;;;4.70;102157.00;;;;9871390;29;20226;-79
2023/05/03 01:33:03;;;;;;;8.20;4.60;;;;;4.70;102160.00;;;;9851631;29;20226;-77
2023/05/03 01:38:06;;;;;;;14.67;5.30;;;;;4.70;102160.00;;;;9851307;29;20514;-78
2023/05/03 01:43:14;;;;;;;8.03;4.70;;;;;4.60;102162.00;;;;9872771;29;20230;-78
2023/05/03 01:48:18;;;;;;;7.53;4.37;;;;;4.50;102155.00;;;;9881722;29;20826;-78
2023/05/03 01:53:20;;;;;;;7.93;4.60;;;;;4.40;102149.00;;;;9864514;29;20458;-78
2023/05/03 01:58:21;;;;;;;12.33;4.40;;;;;4.30;102146.00;;;;9865757;29;20241;-77
2023/05/03 02:03:22;;;;;;;10.87;5.30;;;;;4.30;102148.00;;;;9880106;29;20389;-78
2023/05/03 02:08:24;;;;;;;11.53;5.50;;;;;4.30;102129.00;;;;9857898;29;20233;-81
2023/05/03 02:13:25;;;;;;;10.23;5.13;;;;;4.30;102117.00;;;;9862589;29;20290;-80
2023/05/03 02:18:30;;;;;;;11.13;5.30;;;;;4.40;102121.00;;;;9876391;29;20252;-80
2023/05/03 02:23:31;;;;;;;9.10;4.97;;;;;4.30;102121.00;;;;9859493;29;20723;-81
2023/05/03 02:28:33;;;;;;;9.37;5.43;;;;;4.30;102122.00;;;;9875930;29;20222;-81
2023/05/03 02:33:34;;;;;;;9.27;5.70;;;;;4.30;102126.00;;;;9846867;29;20233;-81
2023/05/03 02:38:35;;;;;;;6.93;5.27;;;;;4.20;102129.00;;;;9876189;29;20238;-81
2023/05/03 02:43:37;;;;;;;11.13;4.77;;;;;4.20;102138.00;;;;9877060;29;20218;-81
2023/05/03 02:48:39;;;;;;;9.30;5.00;;;;;4.10;102133.00;;;;9860552;29;20222;-81
2023/05/03 02:53:40;;;;;;;9.17;5.03;;;;;4.10;102129.00;;;;9879744;29;20575;-80
2023/05/03 02:58:42;;;;;;;9.80;5.57;;;;;4.00;102134.00;;;;9882675;29;20238;-81
2023/05/03 03:03:45;;;;;;;11.20;5.67;;;;;4.00;102133.00;;;;9880423;29;20226;-81
2023/05/03 03:08:46;;;;;;;9.50;4.90;;;;;3.90;102113.00;;;;9895314;29;20214;-81
2023/05/03 03:13:48;;;;;;;8.50;4.77;;;;;3.80;102107.00;;;;9880342;29;20336;-81
2023/05/03 03:18:50;;;;;;;9.20;5.00;;;;;3.70;102102.00;;;;9881264;29;20933;-80
2023/05/03 03:23:51;;;;;;;8.87;4.87;;;;;3.60;102110.00;;;;9883687;29;20671;-81
2023/05/03 03:28:53;;;;;;;7.63;5.33;;;;;3.60;102109.00;;;;9854709;29;20245;-79
2023/05/03 03:33:54;;;;;;;7.77;5.33;;;;;3.60;102120.00;;;;9863088;29;20233;-79
2023/05/03 03:38:57;;;;;;;15.27;5.10;;;;;3.50;102122.00;;;;9878951;29;21907;-79
2023/05/03 03:44:00;;;;;;;8.70;5.20;;;;;3.50;102134.00;;;;9882467;29;20326;-78
2023/05/03 03:49:01;;;;;;;9.97;5.30;;;;;3.40;102121.00;;;;9863528;29;20287;-79
2023/05/03 03:54:04;;;;;;;9.70;5.23;;;;;3.30;102142.00;;;;9869063;29;20523;-77
2023/05/03 03:59:10;;;;;;;11.60;5.47;;;;;3.30;102152.00;;;;9883852;29;20242;-77
2023/05/03 04:04:12;;;;;;;8.73;5.23;;;;;3.30;102161.00;;;;9869062;29;20229;-78
2023/05/03 04:09:16;;;;;;;12.63;5.70;;;;;3.30;102170.00;;;;9869860;29;20992;-77
2023/05/03 04:14:18;;;;;;;8.73;5.20;;;;;3.20;102168.00;;;;9841213;29;20615;-78
2023/05/03 04:19:21;;;;;;;10.77;5.83;;;;;3.10;102168.00;;;;9869140;29;20390;-76
2023/05/03 04:24:22;;;;;;;8.50;5.10;;;;;3.10;102172.00;;;;9869345;29;20230;-78
2023/05/03 04:29:24;;;;;;;9.33;5.57;;;;;3.10;102171.00;;;;9854301;29;20225;-76
2023/05/03 04:34:25;;;;;;;13.00;5.97;;;;;3.20;102167.00;;;;9855800;29;20633;-77
2023/05/03 04:39:29;;;;;;;11.37;5.57;;;;;3.20;102168.00;;;;9861192;29;20309;-81
2023/05/03 04:44:31;;;;;;;9.93;5.63;;;;;3.40;102178.00;;;;9866377;29;20234;-81
2023/05/03 04:49:33;;;;;;;14.57;6.20;;;;;3.50;102190.00;;;;9890690;29;21601;-81
2023/05/03 04:54:34;;;;;;;8.47;6.37;;;;;3.70;102194.00;;;;9875853;29;20237;-80
2023/05/03 04:59:36;;;;;;;9.53;6.70;;;;;3.90;102192.00;;;;9873336;29;20466;-81
2023/05/03 05:04:38;;;;;;;12.77;6.87;;;;;4.20;102192.00;;;;9891088;29;20474;-81
2023/05/03 05:09:39;;;;;;;21.33;7.57;;;;;4.50;102187.00;;;;9873235;29;20252;-81
2023/05/03 05:14:41;;;;;;;15.00;6.93;;;;;4.80;102194.00;;;;9858067;29;20314;-80
2023/05/03 05:19:43;;;;;;;11.20;6.47;;;;;5.10;102189.00;;;;9872985;29;20347;-80
2023/05/03 05:24:45;;;;;;;15.83;8.27;;;;;5.40;102196.00;;;;9856496;29;20925;-81
2023/05/03 05:29:47;;;;;;;10.40;6.90;;;;;5.70;102198.00;;;;9856653;29;20242;-81
2023/05/03 05:34:54;;;;;;;11.07;7.07;;;;;6.10;102207.00;;;;9873531;29;21791;-80
2023/05/03 05:39:57;;;;;;;12.60;6.30;;;;;6.40;102204.00;;;;9871460;29;20222;-81
2023/05/03 05:45:02;;;;;;;11.13;6.83;;;;;6.70;102204.00;;;;9871975;29;20282;-81
2023/05/03 05:50:05;;;;;;;11.67;6.50;;;;;7.20;102218.00;;;;9870828;29;20242;-81
2023/05/03 05:55:23;;;;;;;12.30;6.60;;;;;7.70;102214.00;;;;9843822;29;20226;-81
2023/05/03 06:00:26;;;;;;;9.97;6.03;;;;;8.30;102220.00;;;;9886928;29;20214;-82
2023/05/03 06:05:28;;;;;;;10.87;5.77;;;;;8.60;102220.00;;;;9889108;29;20443;-80
2023/05/03 06:10:29;;;;;;;12.23;5.73;;;;;8.90;102214.00;;;;9887354;29;20241;-81
2023/05/03 06:15:32;;;;;;;8.33;5.53;;;;;9.00;102208.00;;;;9871909;29;20285;-81
2023/05/03 06:20:33;;;;;;;9.50;6.17;;;;;9.30;102202.00;;;;9855411;29;20222;-81
2023/05/03 06:25:35;;;;;;;10.20;6.87;;;;;9.60;102207.00;;;;9859816;29;20313;-83
2023/05/03 06:30:38;;;;;;;10.53;5.43;;;;;9.80;102207.00;;;;9878164;29;20320;-81
2023/05/03 06:35:46;;;;;;;8.33;6.30;;;;;10.10;102199.00;;;;9856770;29;20249;-81
2023/05/03 06:40:49;;;;;;;11.47;6.57;;;;;10.40;102195.00;;;;9870629;29;20954;-80
2023/05/03 06:45:54;;;;;;;8.73;6.83;;;;;10.60;102192.00;;;;9868562;29;20222;-80
2023/05/03 06:50:55;;;;;;;10.07;6.80;;;;;10.80;102188.00;;;;9854262;29;21138;-80
2023/05/03 06:55:57;;;;;;;12.80;6.53;;;;;11.30;102190.00;;;;9854305;29;20508;-82
2023/05/03 07:00:58;;;;;;;9.60;6.27;;;;;11.70;102188.00;;;;9882812;29;20210;-80
2023/05/03 07:06:00;;;;;;;12.27;6.77;;;;;12.00;102185.00;;;;9868378;29;20914;-79
2023/05/03 07:11:03;;;;;;;13.37;7.50;;;;;12.20;102181.00;;;;9865462;29;20244;-79
2023/05/03 07:16:04;;;;;;;8.80;7.10;;;;;12.80;102177.00;;;;9839156;29;20466;-79
2023/05/03 07:21:06;;;;;;;16.90;8.77;;;;;13.10;102184.00;;;;9886737;29;20226;-79
2023/05/03 07:26:10;;;;;;;11.57;7.63;;;;;13.30;102180.00;;;;9883566;29;20242;-81
2023/05/03 07:31:11;;;;;;;10.67;7.53;;;;;13.60;102171.00;;;;9873436;29;20712;-82
2023/05/03 07:36:13;;;;;;;11.97;8.70;;;;;14.10;102168.00;;;;9883348;29;20382;-81
2023/05/03 07:41:14;;;;;;;11.30;8.07;;;;;14.40;102166.00;;;;9872910;29;20268;-80
2023/05/03 07:46:15;;;;;;;12.47;8.93;;;;;14.60;102167.00;;;;9892030;29;20952;-80
2023/05/03 07:51:17;;;;;;;15.97;9.53;;;;;14.80;102176.00;;;;9887927;29;20736;-81
2023/05/03 07:56:18;;;;;;;16.23;8.93;;;;;15.10;102160.00;;;;9872272;29;20272;-82
2023/05/03 08:01:22;;;;;;;14.60;9.07;;;;;15.40;102154.00;;;;9872028;29;21927;-82
2023/05/03 08:06:24;;;;;;;11.70;8.43;;;;;15.80;102167.00;;;;9886273;29;20908;-82
2023/05/03 08:11:27;;;;;;;13.52;8.55;;;;;16.00;102164.00;;;;9851609;29;20345;-83
2023/05/03 08:16:29;;;;;;;13.02;7.78;;;;;16.30;102163.00;;;;9834353;29;20223;-82
2023/05/03 08:21:32;;;;;;;12.93;9.60;;;;;16.80;102157.00;;;;9903637;29;20226;-81
2023/05/03 08:26:34;;;;;;;15.43;8.43;;;;;17.20;102149.00;;;;9865899;29;20222;-83
2023/05/03 08:31:36;;;;;;;13.30;8.05;;;;;17.60;102154.00;;;;9902050;29;20238;-82
2023/05/03 08:36:38;;;;;;;15.48;10.00;;;;;17.50;102144.00;;;;9887517;29;20218;-83
2023/05/03 08:41:39;;;;;;;14.57;9.40;;;;;17.70;102152.00;;;;9902797;29;20301;-82
2023/05/03 08:46:42;;;;;;;14.65;9.45;;;;;17.90;102157.00;;;;9885215;29;20214;-84
2023/05/03 08:51:48;;;;;;;14.48;9.57;;;;;18.00;102149.00;;;;9886817;29;20242;-83
2023/05/03 08:56:50;;;;;;;12.10;9.43;;;;;18.60;102144.00;;;;9903524;29;22006;-83
2023/05/03 09:01:51;;;;;;;19.83;9.60;;;;;18.80;102145.00;;;;9885083;29;20286;-85
2023/05/03 09:07:07;;;;;;;11.45;8.45;;;;;18.80;102156.00;;;;9887238;29;20305;-83
2023/05/03 09:12:08;;;;;;;14.10;8.45;;;;;18.70;102146.00;;;;9852676;29;20217;-84
2023/05/03 09:17:15;;;;;;;13.93;8.95;;;;;19.20;102133.00;;;;9884929;29;20477;-82
2023/05/03 09:22:17;;;;;;;16.73;8.43;;;;;19.10;102131.00;;;;9903806;29;20877;-83
2023/05/03 09:27:20;;;;;;;13.82;9.18;;;;;19.20;102139.00;;;;9888692;29;20230;-81
2023/05/03 09:32:21;;;;;;;14.45;8.80;;;;;19.40;102130.00;;;;9869865;29;21432;-82
2023/05/03 09:37:37;;;;;;;16.10;9.20;;;;;19.50;102136.00;;;;9867519;29;20332;-82
2023/05/03 09:42:42;;;;;;;12.43;7.95;;;;;20.10;102130.00;;;;9900109;29;20256;-84
2023/05/03 09:47:51;;;;;;;16.42;8.77;;;;;20.50;102134.00;;;;9883892;29;21172;-83
2023/05/03 09:52:54;;;;;;;11.27;8.35;;;;;20.70;102133.00;;;;9897913;29;20222;-83
2023/05/03 09:57:56;;;;;;;13.63;9.35;;;;;20.80;102132.00;;;;9883521;29;20238;-84
2023/05/03 10:02:59;;;;;;;13.35;9.55;;;;;20.90;102114.00;;;;9892324;29;20226;-82
2023/05/03 10:08:04;;;;;;;13.88;9.00;;;;;21.00;102115.00;;;;9899704;29;20222;-84
2023/05/03 10:13:05;;;;;;;11.38;9.27;;;;;21.10;102106.00;;;;9883856;29;20300;-83
2023/05/03 10:18:09;;;;;;;10.32;8.88;;;;;21.30;102103.00;;;;9886714;29;20356;-84
2023/05/03 10:23:12;;;;;;;13.05;8.55;;;;;21.60;102102.00;;;;9887808;29;20218;-86
2023/05/03 10:28:14;;;;;;;11.30;8.60;;;;;22.00;102105.00;;;;9874477;29;21743;-82
2023/05/03 10:33:15;;;;;;;11.48;8.50;;;;;21.60;102096.00;;;;9871114;29;20230;-84
2023/05/03 10:38:20;;;;;;;10.65;8.02;;;;;21.60;102095.00;;;;9876506;29;20365;-84
2023/05/03 10:43:30;;;;;;;13.10;8.85;;;;;22.00;102087.00;;;;9873904;29;20227;-83
2023/05/03 10:48:33;;;;;;;13.70;9.02;;;;;22.20;102084.00;;;;9889660;29;20226;-85
2023/05/03 10:53:37;;;;;;;13.30;9.50;;;;;22.30;102085.00;;;;9908987;29;20250;-85
2023/05/03 10:58:47;;;;;;;11.10;8.73;;;;;22.50;102074.00;;;;9885617;29;21257;-85
2023/05/03 11:04:09;;;;;;;11.18;8.43;;;;;22.60;102071.00;;;;9892476;29;20229;-85
2023/05/03 11:09:13;;;;;;;16.02;10.15;;;;;22.90;102073.00;;;;9917321;29;20214;-84
2023/05/03 11:14:15;;;;;;;12.45;10.05;;;;;23.20;102068.00;;;;9901684;29;20244;-84
2023/05/03 11:19:17;;;;;;;13.77;10.00;;;;;22.80;102052.00;;;;9913418;29;20242;-83
2023/05/03 11:24:18;;;;;;;14.15;9.13;;;;;23.30;102065.00;;;;9920917;29;20222;-84
2023/05/03 11:29:20;;;;;;;12.30;9.35;;;;;23.50;102052.00;;;;10023936;24;20267;-85
2023/05/03 11:34:21;;;;;;;12.05;9.32;;;;;23.90;102049.00;;;;9964514;29;20341;-83
2023/05/03 11:39:23;;;;;;;11.25;9.65;;;;;24.00;102049.00;;;;9969828;29;20253;-85
2023/05/03 11:44:24;;;;;;;11.48;9.02;;;;;24.10;102042.00;;;;9945597;29;20209;-84
2023/05/03 11:49:26;;;;;;;12.73;9.50;;;;;24.50;102038.00;;;;9934769;29;20315;-86
2023/05/03 11:54:27;;;;;;;14.90;8.55;;;;;24.20;102027.00;;;;9949589;29;20341;-84
2023/05/03 11:59:37;;;;;;;10.80;9.00;;;;;24.30;102018.00;;;;9935145;29;20237;-85
2023/05/03 12:04:40;;;;;;;12.15;10.00;;;;;23.50;102015.00;;;;9957451;29;20224;-83
2023/05/03 12:15:35;;;;;;;15.93;9.73;;;;;23.80;101982.00;;;;10695292;24;20252;-82
2023/05/03 12:20:38;;;;;;;16.73;9.77;;;;;23.70;101974.00;;;;9938607;29;20232;-84
2023/05/03 12:25:45;;;;;;;15.38;8.30;;;;;24.00;101968.00;;;;9928644;29;20306;-84
2023/05/03 12:30:50;;;;;;;13.23;7.97;;;;;23.80;101971.00;;;;9929040;29;20226;-80
2023/05/03 12:35:54;;;;;;;10.73;8.68;;;;;23.90;101957.00;;;;9917755;29;20221;-79
2023/05/03 12:41:00;;;;;;;12.07;9.20;;;;;24.70;101951.00;;;;9901046;29;20237;-79
2023/05/03 12:46:01;;;;;;;9.90;8.70;;;;;24.40;101948.00;;;;9914283;29;20305;-78
2023/05/03 12:51:24;;;;;;;15.18;8.32;;;;;24.20;101928.00;;;;9889797;29;20880;-78
2023/05/03 12:56:27;;;;;;;12.00;8.32;;;;;24.20;101926.00;;;;9895325;29;20230;-78
2023/05/03 13:01:34;;;;;;;9.27;7.82;;;;;23.00;101917.00;;;;9894873;29;20246;-78
2023/05/03 13:06:39;;;;;;;10.38;7.85;;;;;22.70;101909.00;;;;9868905;29;20218;-81
2023/05/03 13:11:48;;;;;;;12.13;8.25;;;;;22.30;101907.00;;;;9865985;29;21683;-78
2023/05/03 13:16:50;;;;;;;13.90;7.85;;;;;22.60;101888.00;;;;9878260;29;20221;-78
2023/05/03 13:21:53;;;;;;;10.85;8.55;;;;;22.60;101896.00;;;;9878187;29;21642;-80
2023/05/03 13:26:54;;;;;;;17.08;8.75;;;;;23.00;101877.00;;;;9899722;29;20249;-78
2023/05/03 13:31:55;;;;;;;12.30;8.95;;;;;23.30;101889.00;;;;9884210;29;20311;-79
2023/05/03 13:36:57;;;;;;;11.52;8.48;;;;;23.80;101879.00;;;;9887513;29;20312;-79
2023/05/03 13:41:58;;;;;;;15.63;8.52;;;;;24.10;101874.00;;;;9903708;29;20238;-79
2023/05/03 13:47:00;;;;;;;10.18;8.55;;;;;24.80;101857.00;;;;9881034;29;20233;-79
2023/05/03 13:52:02;;;;;;;11.52;8.90;;;;;25.40;101842.00;;;;9875520;29;20226;-79
2023/05/03 13:57:03;;;;;;;9.73;8.30;;;;;26.30;101827.00;;;;9891113;29;20222;-79
2023/05/03 14:02:05;;;;;;;10.93;8.38;;;;;27.00;101836.00;;;;9899080;29;20245;-79
2023/05/03 14:07:06;;;;;;;11.70;7.80;;;;;27.70;101830.00;;;;9884369;29;20246;-80
2023/05/03 14:12:08;;;;;;;12.38;8.48;;;;;27.50;101848.00;;;;9855051;29;20605;-79
2023/05/03 14:17:09;;;;;;;12.70;8.18;;;;;26.90;101826.00;;;;9867571;29;20275;-79
2023/05/03 14:22:11;;;;;;;11.77;8.95;;;;;28.80;101813.00;;;;9901379;29;20221;-78
2023/05/03 14:27:13;;;;;;;10.73;7.47;;;;;29.40;101814.00;;;;9911379;29;21488;-79
2023/05/03 14:32:14;;;;;;;9.07;7.65;;;;;29.90;101815.00;;;;9907774;29;20236;-79
2023/05/03 14:37:16;;;;;;;13.50;8.85;;;;;30.60;101805.00;;;;9877413;29;20940;-79
2023/05/03 14:42:17;;;;;;;11.18;7.90;;;;;30.90;101800.00;;;;9855953;29;20222;-79
2023/05/03 14:47:18;;;;;;;11.45;7.35;;;;;30.90;101781.00;;;;9887234;29;20485;-79
2023/05/03 14:52:20;;;;;;;10.43;7.68;;;;;31.20;101783.00;;;;9866235;29;20234;-79
2023/05/03 14:57:21;;;;;;;10.75;7.63;;;;;31.30;101776.00;;;;9868959;29;20218;-80
2023/05/03 15:02:23;;;;;;;13.65;7.75;;;;;30.50;101789.00;;;;9886919;29;20230;-79
2023/05/03 15:07:24;;;;;;;10.60;6.65;;;;;26.60;101762.00;;;;9854802;29;20218;-79
2023/05/03 15:12:26;;;;;;;7.63;6.45;;;;;25.10;101761.00;;;;9899703;29;20345;-78
2023/05/03 15:17:28;;;;;;;8.95;6.50;;;;;23.10;101758.00;;;;9898876;29;20314;-78
2023/05/03 15:22:29;;;;;;;9.82;6.70;;;;;22.20;101728.00;;;;9884400;29;20234;-78
2023/05/03 15:27:31;;;;;;;13.00;6.43;;;;;23.60;101748.00;;;;9901064;29;20229;-79
2023/05/03 15:32:32;;;;;;;10.23;7.00;;;;;21.20;101738.00;;;;9884450;29;20712;-79
2023/05/03 15:37:36;;;;;;;9.15;6.88;;;;;21.20;101740.00;;;;9870258;29;21074;-78
2023/05/03 15:42:38;;;;;;;12.10;7.60;;;;;26.90;101733.00;;;;9885567;29;21878;-79
2023/05/03 15:47:39;;;;;;;9.20;6.20;;;;;27.10;101747.00;;;;9887504;29;20221;-78
2023/05/03 15:52:41;;;;;;;10.32;6.65;;;;;22.60;101743.00;;;;9886208;29;21999;-77
2023/05/03 15:57:42;;;;;;;9.60;6.30;;;;;20.60;101721.00;;;;9871902;29;20246;-78
2023/05/03 16:02:43;;;;;;;11.02;6.20;;;;;19.80;101728.00;;;;9872999;29;20232;-77
2023/05/03 16:07:45;;;;;;;12.35;7.20;;;;;19.40;101727.00;;;;9872758;29;20903;-80
2023/05/03 16:12:47;;;;;;;10.38;6.57;;;;;19.00;101718.00;;;;9870876;29;20237;-79
2023/05/03 16:17:48;;;;;;;9.88;6.68;;;;;18.80;101719.00;;;;9887218;29;20580;-78
2023/05/03 16:22:50;;;;;;;10.07;6.75;;;;;18.70;101713.00;;;;9868604;29;20326;-77
2023/05/03 16:27:53;;;;;;;8.45;6.50;;;;;18.50;101707.00;;;;9880680;29;20226;-78
2023/05/03 16:32:54;;;;;;;12.00;7.15;;;;;18.40;101705.00;;;;9868508;29;20832;-78
2023/05/03 16:37:56;;;;;;;9.90;6.57;;;;;18.40;101711.00;;;;9887043;29;20246;-77
2023/05/03 16:42:57;;;;;;;9.57;6.80;;;;;18.30;101706.00;;;;9901757;29;20222;-75
2023/05/03 16:47:59;;;;;;;10.30;7.47;;;;;18.20;101715.00;;;;9901116;29;20210;-76
2023/05/03 16:53:02;;;;;;;9.77;6.60;;;;;18.10;101708.00;;;;9883663;29;20254;-78
2023/05/03 16:58:04;;;;;;;8.80;6.50;;;;;18.10;101704.00;;;;9882710;29;20249;-77
2023/05/03 17:03:06;;;;;;;7.32;6.63;;;;;18.00;101720.00;;;;9868987;29;20254;-76
2023/05/03 17:08:08;;;;;;;11.48;6.60;;;;;17.80;101711.00;;;;9878260;29;20398;-76
2023/05/03 17:13:10;;;;;;;10.85;7.80;;;;;17.70;101702.00;;;;9883027;29;20277;-77
2023/05/03 17:18:11;;;;;;;9.10;7.22;;;;;17.60;101713.00;;;;9897443;29;21867;-79
2023/05/03 17:23:13;;;;;;;12.48;7.03;;;;;17.50;101707.00;;;;9880372;29;20222;-79
2023/05/03 17:28:14;;;;;;;12.25;7.00;;;;;17.30;101700.00;;;;9867442;29;20230;-78
2023/05/03 17:33:15;;;;;;;11.07;6.68;;;;;17.10;101695.00;;;;9882905;29;20244;-78
2023/05/03 17:38:17;;;;;;;8.38;6.35;;;;;16.90;101689.00;;;;9866609;29;20241;-78
2023/05/03 17:43:18;;;;;;;8.50;6.55;;;;;16.70;101692.00;;;;9881719;29;20236;-78
2023/05/03 17:48:19;;;;;;;15.57;6.25;;;;;16.60;101689.00;;;;9863791;29;20252;-78
2023/05/03 17:53:21;;;;;;;9.85;6.97;;;;;16.50;101689.00;;;;9865220;29;20222;-78
2023/05/03 17:58:22;;;;;;;12.60;6.85;;;;;16.40;101684.00;;;;9853535;29;20322;-78
2023/05/03 18:03:24;;;;;;;9.23;6.97;;;;;16.40;101676.00;;;;9851065;29;21804;-80
2023/05/03 18:08:25;;;;;;;9.93;6.72;;;;;16.30;101682.00;;;;9865134;29;20221;-77
2023/05/03 18:13:27;;;;;;;8.13;6.20;;;;;16.10;101677.00;;;;9861984;29;20221;-78
2023/05/03 18:18:28;;;;;;;12.82;6.38;;;;;16.00;101684.00;;;;9862228;29;20233;-78
2023/05/03 18:23:31;;;;;;;10.43;6.55;;;;;15.80;101691.00;;;;9878760;29;20229;-79
2023/05/03 18:28:33;;;;;;;13.45;7.30;;;;;15.60;101680.00;;;;9880921;29;20229;-78
2023/05/03 18:33:34;;;;;;;10.40;7.07;;;;;15.50;101691.00;;;;9884003;29;20259;-80
2023/05/03 18:38:37;;;;;;;11.63;6.78;;;;;15.30;101683.00;;;;9853466;29;20264;-80
2023/05/03 18:43:42;;;;;;;13.73;6.75;;;;;15.10;101679.00;;;;9867496;29;20305;-81
2023/05/03 18:48:44;;;;;;;13.97;6.57;;;;;14.90;101682.00;;;;9879800;29;20268;-80
2023/05/03 18:53:46;;;;;;;9.83;6.33;;;;;14.70;101679.00;;;;9867708;29;20617;-79
2023/05/03 18:58:47;;;;;;;9.93;5.90;;;;;14.40;101679.00;;;;9854672;29;20244;-79
2023/05/03 19:03:48;;;;;;;8.50;5.70;;;;;14.20;101673.00;;;;9863836;29;20302;-78
2023/05/03 19:08:50;;;;;;;9.93;5.97;;;;;13.90;101680.00;;;;9850089;29;20685;-79
2023/05/03 19:13:52;;;;;;;10.23;6.80;;;;;13.80;101678.00;;;;9879126;29;20913;-79
2023/05/03 19:18:54;;;;;;;11.47;5.97;;;;;13.70;101682.00;;;;9878577;29;20322;-79
2023/05/03 19:23:55;;;;;;;10.40;6.13;;;;;13.50;101678.00;;;;9841586;29;20260;-78
2023/05/03 19:28:57;;;;;;;12.83;5.83;;;;;13.50;101676.00;;;;9835565;29;20214;-79
2023/05/03 19:33:58;;;;;;;12.77;6.27;;;;;13.40;101682.00;;;;9860043;29;20257;-79
2023/05/03 19:39:02;;;;;;;8.87;5.93;;;;;13.30;101685.00;;;;9852695;29;20713;-78
2023/05/03 19:44:04;;;;;;;10.83;6.10;;;;;13.20;101686.00;;;;9882111;29;20303;-79
2023/05/03 19:49:06;;;;;;;9.37;5.20;;;;;13.10;101694.00;;;;9884218;29;20223;-78
2023/05/03 19:54:08;;;;;;;10.73;5.50;;;;;12.90;101691.00;;;;9849965;29;20233;-80
2023/05/03 19:59:10;;;;;;;8.90;5.30;;;;;12.70;101690.00;;;;9876408;29;20270;-78
2023/05/03 20:04:11;;;;;;;11.30;5.50;;;;;12.50;101685.00;;;;9852226;29;20222;-79
2023/05/03 20:09:12;;;;;;;10.73;6.00;;;;;12.40;101682.00;;;;9886044;29;20229;-79
2023/05/03 20:14:14;;;;;;;9.50;6.10;;;;;12.30;101682.00;;;;9855963;29;20274;-79
2023/05/03 20:19:16;;;;;;;11.30;5.97;;;;;12.30;101681.00;;;;9888576;29;20249;-79
2023/05/03 20:24:19;;;;;;;9.20;5.90;;;;;12.30;101677.00;;;;9867065;29;20222;-79
2023/05/03 20:29:21;;;;;;;17.80;7.20;;;;;12.30;101663.00;;;;9861521;29;20226;-79
2023/05/03 20:34:22;;;;;;;11.17;7.07;;;;;12.20;101657.00;;;;9866882;29;20266;-79
2023/05/03 20:39:23;;;;;;;11.77;6.40;;;;;12.20;101655.00;;;;9857952;29;20242;-79
2023/05/03 20:44:25;;;;;;;10.07;6.47;;;;;12.10;101658.00;;;;9874334;29;20248;-79
2023/05/03 20:49:26;;;;;;;12.27;6.70;;;;;12.10;101647.00;;;;9877835;29;20222;-80
2023/05/03 20:54:27;;;;;;;11.83;6.60;;;;;12.10;101654.00;;;;9846794;29;21794;-79
2023/05/03 20:59:29;;;;;;;10.80;6.30;;;;;12.00;101641.00;;;;9882762;29;20237;-79
2023/05/03 21:04:31;;;;;;;10.50;6.00;;;;;11.90;101651.00;;;;9866512;29;20229;-79
2023/05/03 21:09:32;;;;;;;9.27;6.33;;;;;11.90;101641.00;;;;9866435;29;20229;-79
2023/05/03 21:14:33;;;;;;;10.93;6.60;;;;;11.80;101636.00;;;;9858800;29;21233;-79
2023/05/03 21:19:34;;;;;;;11.03;6.73;;;;;11.70;101638.00;;;;9852489;29;21935;-79
2023/05/03 21:24:36;;;;;;;10.97;6.20;;;;;11.60;101641.00;;;;9882672;29;20340;-79
2023/05/03 21:29:37;;;;;;;8.67;6.67;;;;;11.50;101634.00;;;;9884217;29;20234;-79
2023/05/03 21:34:38;;;;;;;11.53;6.50;;;;;11.40;101638.00;;;;9868568;29;20245;-79
2023/05/03 21:39:40;;;;;;;10.53;6.67;;;;;11.30;101635.00;;;;9854966;29;20617;-79
2023/05/03 21:44:46;;;;;;;9.40;6.40;;;;;11.20;101626.00;;;;9889409;29;20314;-79
2023/05/03 21:49:47;;;;;;;8.83;7.07;;;;;11.10;101626.00;;;;9882672;29;20234;-79
2023/05/03 21:54:48;;;;;;;14.70;6.80;;;;;11.00;101631.00;;;;9861933;29;20230;-78
2023/05/03 21:59:52;;;;;;;10.63;6.20;;;;;10.90;101632.00;;;;9834511;29;20246;-79
2023/05/03 22:04:53;;;;;;;11.53;6.97;;;;;10.80;101629.00;;;;9847446;29;20222;-79
2023/05/03 22:09:55;;;;;;;13.63;7.20;;;;;10.70;101631.00;;;;9845726;29;22177;-80
2023/05/03 22:14:56;;;;;;;11.63;6.47;;;;;10.50;101623.00;;;;9845727;29;20218;-79
2023/05/03 22:19:57;;;;;;;11.73;6.70;;;;;10.40;101616.00;;;;9869201;29;20242;-78
2023/05/03 22:24:59;;;;;;;12.83;7.10;;;;;10.40;101605.00;;;;9883477;29;20226;-79
2023/05/03 22:30:01;;;;;;;12.67;7.03;;;;;10.30;101606.00;;;;11008456;24;20234;-78
2023/05/03 22:35:03;;;;;;;11.80;6.63;;;;;10.30;101594.00;;;;9914867;29;20704;-78
2023/05/03 22:40:05;;;;;;;8.37;6.43;;;;;10.20;101602.00;;;;9887255;29;20237;-79
2023/05/03 22:45:07;;;;;;;11.53;6.93;;;;;10.10;101588.00;;;;9961704;29;20218;-81
2023/05/03 22:50:09;;;;;;;12.37;7.23;;;;;10.00;101580.00;;;;9877500;29;20244;-80
2023/05/03 22:55:10;;;;;;;12.70;7.33;;;;;10.00;101578.00;;;;9840301;29;20230;-80
2023/05/03 23:00:12;;;;;;;10.07;7.30;;;;;9.90;101576.00;;;;9871783;29;20312;-79
2023/05/03 23:05:14;;;;;;;14.13;6.73;;;;;9.80;101569.00;;;;9953047;29;20250;-78
2023/05/03 23:10:16;;;;;;;8.10;6.60;;;;;9.80;101564.00;;;;10769649;24;20238;-79
2023/05/03 23:15:17;;;;;;;13.07;6.50;;;;;9.80;101557.00;;;;9869153;29;20311;-78
2023/05/03 23:20:18;;;;;;;12.47;7.63;;;;;9.80;101558.00;;;;9867316;29;20607;-78
2023/05/03 23:25:20;;;;;;;12.67;6.97;;;;;9.70;101545.00;;;;9836983;29;20906;-78
2023/05/03 23:30:21;;;;;;;11.13;7.30;;;;;9.70;101552.00;;;;9884066;29;21519;-78
2023/05/03 23:35:23;;;;;;;11.70;7.33;;;;;9.70;101545.00;;;;9851295;29;20264;-79
2023/05/03 23:40:24;;;;;;;9.87;6.90;;;;;9.60;101536.00;;;;9851683;29;22136;-78
2023/05/03 23:45:26;;;;;;;12.47;7.13;;;;;9.60;101533.00;;;;9868387;29;20230;-78
2023/05/03 23:50:27;;;;;;;10.73;6.53;;;;;9.50;101536.00;;;;9853490;29;21128;-78
2023/05/03 23:55:28;;;;;;;12.30;7.43;;;;;9.50;101532.00;;;;9854324;29;20346;-78
